createdAt,value
2018-03-24T00:00:05.610Z,16.40
2018-03-24T00:01:05.550Z,14.40
2018-03-24T00:02:05.491Z,15.20
2018-03-24T00:03:05.512Z,16.20
2018-03-24T00:04:05.436Z,16.60
2018-03-24T00:05:05.399Z,16.60
2018-03-24T00:06:05.345Z,19.00
2018-03-24T00:07:05.286Z,19.90
2018-03-24T00:08:05.276Z,20.00
2018-03-24T00:09:05.231Z,21.10
2018-03-24T00:10:05.191Z,22.90
2018-03-24T00:11:05.108Z,33.00
2018-03-24T00:12:05.097Z,30.90
2018-03-24T00:13:05.023Z,35.10
2018-03-24T00:14:05.001Z,25.60
2018-03-24T00:15:04.931Z,24.50
2018-03-24T00:16:04.890Z,40.30
2018-03-24T00:17:04.844Z,45.50
2018-03-24T00:18:04.804Z,50.00
2018-03-24T00:19:04.752Z,55.30
2018-03-24T00:20:04.729Z,56.10
2018-03-24T00:21:04.681Z,54.00
2018-03-24T00:22:04.630Z,55.70
2018-03-24T00:23:04.599Z,57.50
2018-03-24T00:24:04.554Z,55.60
2018-03-24T00:25:04.509Z,47.70
2018-03-24T00:26:04.454Z,40.60
2018-03-24T00:27:04.411Z,22.60
2018-03-24T00:28:04.403Z,20.40
2018-03-24T00:29:04.323Z,16.60
2018-03-24T00:30:04.308Z,17.20
2018-03-24T00:31:04.249Z,17.90
2018-03-24T00:32:04.197Z,19.60
2018-03-24T00:33:04.164Z,21.90
2018-03-24T00:34:04.108Z,26.40
2018-03-24T00:35:04.057Z,31.90
2018-03-24T00:36:04.014Z,34.70
2018-03-24T00:37:03.986Z,39.70
2018-03-24T00:38:03.945Z,28.40
2018-03-24T00:39:03.885Z,26.00
2018-03-24T00:40:03.861Z,22.10
2018-03-24T00:41:03.809Z,23.80
2018-03-24T00:42:03.751Z,21.10
2018-03-24T00:43:03.707Z,21.90
2018-03-24T00:44:03.662Z,22.10
2018-03-24T00:45:03.649Z,23.20
2018-03-24T00:46:03.573Z,19.90
2018-03-24T00:47:03.600Z,19.00
2018-03-24T00:48:03.491Z,17.10
2018-03-24T00:49:03.466Z,18.70
2018-03-24T00:50:03.408Z,17.70
2018-03-24T00:51:03.368Z,16.20
2018-03-24T00:52:03.305Z,16.00
2018-03-24T00:53:03.279Z,15.50
2018-03-24T00:54:03.233Z,15.90
2018-03-24T00:55:03.181Z,17.80
2018-03-24T00:56:03.140Z,17.60
2018-03-24T00:57:03.095Z,17.60
2018-03-24T00:58:03.054Z,19.70
2018-03-24T00:59:03.004Z,18.20
2018-03-24T01:00:02.964Z,17.30
2018-03-24T01:01:02.921Z,18.70
2018-03-24T01:02:02.897Z,20.70
2018-03-24T01:03:02.891Z,18.60
2018-03-24T01:04:02.839Z,18.50
2018-03-24T01:05:02.781Z,19.10
2018-03-24T01:06:04.244Z,20.30
2018-03-24T01:07:02.659Z,23.50
2018-03-24T01:08:02.612Z,22.70
2018-03-24T01:09:02.565Z,22.80
2018-03-24T01:10:02.530Z,22.00
2018-03-24T01:11:02.503Z,21.60
2018-03-24T01:12:02.436Z,21.90
2018-03-24T01:13:02.413Z,20.30
2018-03-24T01:14:02.350Z,20.70
2018-03-24T01:15:02.342Z,21.30
2018-03-24T01:16:02.263Z,20.00
2018-03-24T01:17:02.301Z,22.50
2018-03-24T01:18:02.172Z,22.20
2018-03-24T01:19:02.130Z,19.90
2018-03-24T01:20:02.146Z,18.70
2018-03-24T01:21:02.101Z,21.90
2018-03-24T01:22:02.031Z,21.70
2018-03-24T01:23:01.979Z,19.50
2018-03-24T01:24:01.959Z,19.60
2018-03-24T01:25:02.074Z,19.00
2018-03-24T01:26:01.862Z,20.80
2018-03-24T01:27:01.821Z,20.30
2018-03-24T01:28:01.904Z,18.10
2018-03-24T01:29:01.724Z,18.00
2018-03-24T01:30:01.766Z,18.70
2018-03-24T01:31:01.646Z,17.70
2018-03-24T01:32:01.590Z,17.70
2018-03-24T01:33:01.540Z,18.20
2018-03-24T01:34:01.488Z,18.50
2018-03-24T01:35:01.469Z,19.50
2018-03-24T01:36:01.399Z,20.50
2018-03-24T01:37:01.354Z,20.30
2018-03-24T01:38:01.319Z,21.50
2018-03-24T01:39:01.271Z,23.50
2018-03-24T01:40:01.223Z,22.50
2018-03-24T01:41:01.217Z,22.50
2018-03-24T01:42:01.298Z,22.30
2018-03-24T01:43:01.095Z,22.10
2018-03-24T01:44:01.035Z,22.10
2018-03-24T01:45:01.011Z,21.80
2018-03-24T01:46:00.965Z,22.20
2018-03-24T01:47:00.917Z,22.00
2018-03-24T01:48:00.902Z,22.30
2018-03-24T01:49:00.928Z,22.20
2018-03-24T01:50:00.940Z,20.10
2018-03-24T01:51:00.733Z,20.20
2018-03-24T01:52:00.694Z,20.80
2018-03-24T01:53:00.687Z,19.10
2018-03-24T01:54:00.640Z,19.20
2018-03-24T01:55:00.608Z,18.60
2018-03-24T01:56:00.565Z,19.20
2018-03-24T01:57:00.497Z,19.30
2018-03-24T01:58:00.479Z,20.50
2018-03-24T01:59:00.397Z,19.80
2018-03-24T02:00:00.355Z,19.20
2018-03-24T02:01:00.303Z,18.00
2018-03-24T02:02:00.264Z,18.60
2018-03-24T02:03:00.377Z,18.20
2018-03-24T02:04:00.174Z,18.80
2018-03-24T02:05:00.133Z,20.30
2018-03-24T02:06:00.124Z,20.20
2018-03-24T02:07:00.035Z,19.70
2018-03-24T02:07:59.998Z,20.80
2018-03-24T02:08:59.992Z,20.30
2018-03-24T02:09:59.908Z,20.20
2018-03-24T02:10:59.871Z,21.60
2018-03-24T02:11:59.813Z,21.90
2018-03-24T02:12:59.781Z,22.80
2018-03-24T02:13:59.761Z,21.60
2018-03-24T02:14:59.695Z,22.20
2018-03-24T02:15:59.640Z,22.90
2018-03-24T02:16:59.599Z,20.10
2018-03-24T02:17:59.560Z,19.00
2018-03-24T02:18:59.508Z,18.80
2018-03-24T02:19:59.472Z,19.60
2018-03-24T02:20:59.453Z,20.30
2018-03-24T02:21:59.383Z,21.40
2018-03-24T02:22:59.333Z,23.00
2018-03-24T02:23:59.304Z,23.70
2018-03-24T02:24:59.272Z,23.40
2018-03-24T02:25:59.227Z,22.70
2018-03-24T02:26:59.186Z,24.00
2018-03-24T02:27:59.160Z,23.80
2018-03-24T02:28:59.129Z,24.00
2018-03-24T02:29:59.068Z,21.60
2018-03-24T02:30:58.993Z,20.50
2018-03-24T02:31:58.977Z,21.00
2018-03-24T02:32:58.919Z,21.80
2018-03-24T02:33:58.865Z,22.30
2018-03-24T02:34:58.857Z,22.20
2018-03-24T02:35:58.787Z,21.80
2018-03-24T02:36:58.740Z,21.60
2018-03-24T02:37:58.691Z,21.60
2018-03-24T02:38:58.645Z,21.40
2018-03-24T02:39:59.217Z,21.70
2018-03-24T02:40:58.580Z,24.50
2018-03-24T02:41:58.521Z,24.90
2018-03-24T02:42:58.467Z,25.40
2018-03-24T02:43:58.515Z,24.40
2018-03-24T02:44:58.380Z,24.20
2018-03-24T02:45:58.365Z,23.10
2018-03-24T02:46:58.299Z,23.40
2018-03-24T02:47:58.260Z,25.40
2018-03-24T02:48:58.204Z,26.30
2018-03-24T02:49:58.174Z,27.60
2018-03-24T02:50:58.133Z,28.40
2018-03-24T02:51:58.080Z,24.10
2018-03-24T02:52:58.029Z,24.10
2018-03-24T02:53:57.998Z,24.00
2018-03-24T02:54:57.965Z,24.30
2018-03-24T02:55:57.916Z,24.10
2018-03-24T02:56:57.854Z,23.10
2018-03-24T02:57:57.814Z,24.10
2018-03-24T02:58:57.814Z,24.50
2018-03-24T02:59:57.785Z,23.80
2018-03-24T03:00:57.706Z,25.60
2018-03-24T03:01:57.645Z,24.60
2018-03-24T03:02:57.596Z,24.20
2018-03-24T03:03:57.562Z,23.90
2018-03-24T03:04:57.499Z,23.00
2018-03-24T03:05:57.481Z,24.70
2018-03-24T03:06:57.433Z,26.00
2018-03-24T03:07:57.392Z,25.30
2018-03-24T03:08:58.223Z,25.80
2018-03-24T03:09:57.304Z,28.00
2018-03-24T03:10:57.261Z,26.50
2018-03-24T03:11:57.200Z,24.90
2018-03-24T03:12:57.165Z,25.30
2018-03-24T03:13:57.139Z,24.80
2018-03-24T03:14:57.070Z,25.60
2018-03-24T03:15:57.018Z,25.50
2018-03-24T03:16:57.029Z,24.50
2018-03-24T03:17:56.944Z,23.80
2018-03-24T03:18:56.911Z,25.00
2018-03-24T03:19:56.838Z,23.90
2018-03-24T03:20:56.798Z,24.90
2018-03-24T03:21:56.770Z,24.30
2018-03-24T03:22:56.718Z,26.00
2018-03-24T03:23:56.678Z,25.00
2018-03-24T03:24:56.668Z,23.70
2018-03-24T03:25:56.618Z,24.70
2018-03-24T03:26:56.552Z,25.90
2018-03-24T03:27:56.556Z,27.40
2018-03-24T03:28:56.467Z,27.70
2018-03-24T03:29:56.407Z,26.90
2018-03-24T03:30:56.354Z,25.40
2018-03-24T03:31:56.323Z,24.00
2018-03-24T03:32:56.267Z,23.90
2018-03-24T03:33:56.232Z,24.30
2018-03-24T03:34:56.213Z,27.60
2018-03-24T03:35:56.155Z,27.90
2018-03-24T03:36:56.091Z,29.30
2018-03-24T03:37:56.046Z,29.00
2018-03-24T03:38:56.043Z,28.70
2018-03-24T03:39:55.987Z,28.00
2018-03-24T03:40:55.935Z,27.80
2018-03-24T03:41:55.899Z,24.90
2018-03-24T03:42:55.897Z,24.90
2018-03-24T03:43:55.792Z,24.30
2018-03-24T03:44:55.753Z,24.70
2018-03-24T03:45:55.739Z,24.30
2018-03-24T03:46:55.659Z,23.10
2018-03-24T03:47:55.625Z,23.90
2018-03-24T03:48:55.601Z,22.30
2018-03-24T03:49:55.547Z,23.80
2018-03-24T03:50:55.499Z,27.00
2018-03-24T03:51:55.445Z,28.00
2018-03-24T03:52:55.432Z,25.60
2018-03-24T03:53:55.342Z,26.40
2018-03-24T03:54:55.317Z,27.70
2018-03-24T03:55:55.402Z,26.20
2018-03-24T03:56:55.271Z,28.50
2018-03-24T03:57:55.230Z,27.10
2018-03-24T03:58:55.173Z,28.20
2018-03-24T03:59:55.096Z,27.70
2018-03-24T04:00:55.067Z,27.90
2018-03-24T04:01:55.002Z,27.20
2018-03-24T04:02:54.963Z,27.10
2018-03-24T04:03:54.916Z,26.40
2018-03-24T04:04:54.914Z,24.80
2018-03-24T04:05:54.828Z,25.50
2018-03-24T04:06:54.781Z,24.80
2018-03-24T04:07:54.737Z,26.30
2018-03-24T04:08:54.719Z,25.10
2018-03-24T04:09:54.657Z,25.30
2018-03-24T04:10:54.613Z,26.10
2018-03-24T04:11:54.587Z,25.80
2018-03-24T04:12:54.519Z,26.60
2018-03-24T04:13:54.483Z,27.10
2018-03-24T04:14:54.472Z,25.50
2018-03-24T04:15:54.393Z,23.90
2018-03-24T04:16:54.386Z,26.50
2018-03-24T04:17:54.294Z,29.60
2018-03-24T04:18:54.279Z,29.80
2018-03-24T04:19:54.216Z,30.50
2018-03-24T04:20:54.193Z,30.50
2018-03-24T04:21:54.119Z,31.00
2018-03-24T04:22:54.097Z,29.60
2018-03-24T04:23:54.056Z,27.80
2018-03-24T04:24:54.037Z,28.90
2018-03-24T04:25:53.958Z,29.60
2018-03-24T04:26:53.908Z,28.70
2018-03-24T04:27:53.853Z,26.90
2018-03-24T04:28:53.810Z,27.10
2018-03-24T04:29:53.818Z,26.80
2018-03-24T04:30:53.767Z,27.10
2018-03-24T04:31:53.685Z,28.40
2018-03-24T04:32:53.631Z,28.20
2018-03-24T04:33:53.595Z,28.00
2018-03-24T04:34:53.566Z,28.60
2018-03-24T04:35:53.534Z,27.70
2018-03-24T04:36:53.456Z,28.10
2018-03-24T04:37:53.413Z,26.00
2018-03-24T04:38:53.377Z,24.80
2018-03-24T04:39:53.335Z,26.40
2018-03-24T04:40:53.279Z,28.30
2018-03-24T04:41:53.266Z,27.10
2018-03-24T04:42:53.210Z,26.20
2018-03-24T04:43:53.168Z,25.20
2018-03-24T04:44:53.129Z,25.60
2018-03-24T04:45:53.063Z,27.10
2018-03-24T04:46:53.022Z,28.10
2018-03-24T04:47:52.984Z,29.60
2018-03-24T04:48:52.937Z,30.80
2018-03-24T04:49:52.905Z,34.20
2018-03-24T04:50:52.847Z,34.20
2018-03-24T04:51:52.839Z,32.30
2018-03-24T04:52:52.752Z,31.50
2018-03-24T04:53:52.716Z,29.30
2018-03-24T04:54:52.668Z,28.80
2018-03-24T04:55:52.633Z,29.10
2018-03-24T04:56:52.589Z,28.50
2018-03-24T04:57:52.540Z,28.60
2018-03-24T04:58:52.496Z,30.50
2018-03-24T04:59:52.511Z,26.40
2018-03-24T05:00:52.417Z,28.20
2018-03-24T05:01:52.364Z,27.60
2018-03-24T05:02:52.310Z,28.50
2018-03-24T05:03:52.273Z,27.90
2018-03-24T05:04:52.240Z,28.40
2018-03-24T05:05:52.189Z,30.00
2018-03-24T05:06:52.133Z,28.50
2018-03-24T05:07:52.085Z,28.70
2018-03-24T05:08:52.078Z,29.90
2018-03-24T05:09:52.010Z,29.90
2018-03-24T05:10:51.969Z,32.40
2018-03-24T05:11:51.929Z,30.40
2018-03-24T05:12:51.872Z,31.00
2018-03-24T05:13:51.854Z,31.50
2018-03-24T05:14:51.810Z,32.10
2018-03-24T05:15:51.738Z,32.10
2018-03-24T05:16:51.691Z,33.10
2018-03-24T05:17:51.657Z,33.40
2018-03-24T05:18:51.604Z,32.30
2018-03-24T05:19:51.577Z,30.70
2018-03-24T05:20:51.558Z,31.50
2018-03-24T05:21:51.477Z,31.50
2018-03-24T05:22:51.450Z,32.70
2018-03-24T05:23:51.392Z,30.40
2018-03-24T05:24:51.350Z,30.70
2018-03-24T05:25:51.284Z,32.80
2018-03-24T05:26:51.284Z,32.40
2018-03-24T05:27:51.216Z,33.60
2018-03-24T05:28:51.165Z,34.90
2018-03-24T05:29:51.109Z,33.50
2018-03-24T05:30:51.091Z,32.90
2018-03-24T05:31:51.178Z,34.10
2018-03-24T05:32:50.986Z,32.70
2018-03-24T05:33:50.967Z,30.20
2018-03-24T05:34:50.923Z,32.40
2018-03-24T05:35:50.860Z,33.60
2018-03-24T05:36:50.894Z,32.30
2018-03-24T05:37:50.800Z,30.80
2018-03-24T05:38:50.770Z,31.20
2018-03-24T05:39:50.674Z,31.00
2018-03-24T05:40:50.628Z,31.00
2018-03-24T05:41:50.576Z,31.50
2018-03-24T05:42:50.554Z,31.70
2018-03-24T05:43:50.511Z,33.10
2018-03-24T05:44:50.493Z,34.60
2018-03-24T05:45:50.409Z,32.70
2018-03-24T05:46:50.367Z,33.50
2018-03-24T05:47:50.336Z,31.20
2018-03-24T05:48:50.344Z,31.00
2018-03-24T05:49:50.243Z,32.00
2018-03-24T05:50:50.191Z,32.00
2018-03-24T05:51:50.142Z,31.90
2018-03-24T05:52:50.122Z,33.20
2018-03-24T05:53:50.059Z,34.50
2018-03-24T05:54:50.015Z,34.70
2018-03-24T05:55:49.980Z,35.10
2018-03-24T05:56:49.926Z,32.30
2018-03-24T05:57:49.932Z,31.70
2018-03-24T05:58:49.838Z,31.60
2018-03-24T05:59:49.807Z,30.70
2018-03-24T06:00:49.740Z,29.30
2018-03-24T06:01:49.714Z,29.20
2018-03-24T06:02:49.653Z,28.20
2018-03-24T06:03:49.625Z,28.10
2018-03-24T06:04:49.586Z,28.70
2018-03-24T06:05:49.514Z,29.00
2018-03-24T06:06:49.501Z,28.00
2018-03-24T06:07:49.437Z,28.50
2018-03-24T06:08:49.408Z,27.80
2018-03-24T06:09:49.343Z,26.80
2018-03-24T06:10:49.311Z,26.10
2018-03-24T06:11:49.291Z,27.30
2018-03-24T06:12:49.217Z,26.50
2018-03-24T06:13:49.161Z,26.60
2018-03-24T06:14:49.137Z,28.20
2018-03-24T06:15:49.752Z,28.30
2018-03-24T06:16:49.040Z,25.70
2018-03-24T06:17:48.997Z,25.50
2018-03-24T06:18:48.977Z,27.00
2018-03-24T06:19:48.911Z,27.10
2018-03-24T06:20:48.878Z,25.80
2018-03-24T06:21:48.831Z,27.60
2018-03-24T06:22:48.799Z,28.10
2018-03-24T06:23:48.747Z,28.30
2018-03-24T06:24:48.688Z,31.20
2018-03-24T06:25:48.678Z,29.30
2018-03-24T06:26:48.610Z,25.90
2018-03-24T06:27:48.579Z,26.50
2018-03-24T06:28:48.566Z,25.90
2018-03-24T06:29:48.493Z,27.10
2018-03-24T06:30:48.433Z,26.50
2018-03-24T06:31:48.414Z,27.60
2018-03-24T06:32:48.349Z,27.20
2018-03-24T06:33:48.373Z,28.40
2018-03-24T06:34:48.271Z,27.40
2018-03-24T06:35:48.234Z,25.90
2018-03-24T06:36:48.198Z,26.60
2018-03-24T06:37:48.145Z,25.20
2018-03-24T06:38:48.109Z,25.60
2018-03-24T06:39:48.051Z,26.30
2018-03-24T06:40:48.065Z,25.00
2018-03-24T06:41:48.001Z,25.90
2018-03-24T06:42:47.971Z,24.90
2018-03-24T06:43:47.889Z,24.50
2018-03-24T06:44:47.860Z,24.70
2018-03-24T06:45:47.820Z,25.00
2018-03-24T06:46:47.771Z,24.20
2018-03-24T06:47:47.745Z,25.00
2018-03-24T06:48:47.704Z,23.70
2018-03-24T06:49:47.660Z,25.10
2018-03-24T06:50:47.629Z,24.20
2018-03-24T06:51:47.604Z,24.60
2018-03-24T06:52:47.535Z,24.80
2018-03-24T06:53:47.496Z,25.10
2018-03-24T06:54:47.466Z,23.30
2018-03-24T06:55:47.413Z,24.00
2018-03-24T06:56:47.382Z,23.90
2018-03-24T06:57:47.350Z,23.40
2018-03-24T06:58:47.319Z,22.60
2018-03-24T06:59:47.275Z,22.70
2018-03-24T07:00:47.253Z,22.30
2018-03-24T07:01:47.231Z,23.80
2018-03-24T07:02:47.184Z,24.00
2018-03-24T07:03:47.154Z,23.90
2018-03-24T07:04:47.099Z,23.40
2018-03-24T07:05:47.073Z,23.30
2018-03-24T07:06:47.043Z,22.70
2018-03-24T07:07:47.047Z,20.20
2018-03-24T07:08:46.968Z,19.40
2018-03-24T07:09:46.942Z,19.10
2018-03-24T07:10:46.912Z,18.80
2018-03-24T07:11:46.866Z,19.20
2018-03-24T07:12:46.849Z,20.10
2018-03-24T07:13:46.823Z,19.60
2018-03-24T07:14:46.792Z,19.60
2018-03-24T07:15:46.814Z,20.00
2018-03-24T07:16:46.750Z,19.70
2018-03-24T07:17:46.692Z,20.80
2018-03-24T07:18:46.665Z,21.00
2018-03-24T07:19:46.641Z,19.50
2018-03-24T07:20:46.617Z,20.40
2018-03-24T07:21:46.577Z,18.60
2018-03-24T07:22:46.537Z,18.30
2018-03-24T07:23:46.512Z,18.10
2018-03-24T07:24:46.494Z,18.40
2018-03-24T07:25:46.452Z,20.30
2018-03-24T07:26:46.432Z,20.20
2018-03-24T07:27:46.386Z,19.70
2018-03-24T07:28:46.363Z,20.20
2018-03-24T07:29:46.344Z,20.70
2018-03-24T07:30:46.335Z,20.20
2018-03-24T07:31:46.297Z,21.50
2018-03-24T07:32:46.258Z,19.30
2018-03-24T07:33:46.231Z,21.00
2018-03-24T07:34:46.212Z,20.30
2018-03-24T07:35:46.178Z,19.90
2018-03-24T07:36:46.147Z,19.80
2018-03-24T07:37:46.111Z,20.80
2018-03-24T07:38:46.113Z,20.70
2018-03-24T07:39:46.056Z,21.30
2018-03-24T07:40:46.067Z,22.60
2018-03-24T07:41:46.006Z,21.90
2018-03-24T07:42:45.991Z,22.10
2018-03-24T07:43:45.946Z,21.40
2018-03-24T07:44:45.933Z,21.70
2018-03-24T07:45:45.888Z,22.90
2018-03-24T07:46:45.865Z,22.80
2018-03-24T07:47:45.843Z,22.90
2018-03-24T07:48:45.819Z,22.30
2018-03-24T07:49:45.782Z,23.20
2018-03-24T07:50:45.770Z,23.80
2018-03-24T07:51:45.746Z,22.60
2018-03-24T07:52:45.713Z,22.60
2018-03-24T07:53:45.817Z,23.60
2018-03-24T07:54:45.734Z,23.40
2018-03-24T07:55:45.622Z,23.70
2018-03-24T07:56:45.603Z,23.30
2018-03-24T07:57:45.583Z,23.30
2018-03-24T07:58:45.563Z,21.30
2018-03-24T07:59:45.527Z,21.20
2018-03-24T08:00:45.492Z,21.70
2018-03-24T08:01:45.464Z,21.20
2018-03-24T08:02:45.429Z,20.00
2018-03-24T08:03:45.421Z,20.70
2018-03-24T08:04:45.373Z,20.70
2018-03-24T08:05:45.356Z,19.50
2018-03-24T08:06:45.334Z,18.90
2018-03-24T08:07:45.309Z,14.30
2018-03-24T08:08:45.276Z,14.90
2018-03-24T08:09:45.245Z,16.30
2018-03-24T08:10:45.211Z,16.20
2018-03-24T08:11:45.229Z,15.70
2018-03-24T08:12:45.178Z,15.40
2018-03-24T08:13:45.145Z,15.30
2018-03-24T08:14:45.116Z,14.90
2018-03-24T08:15:45.121Z,15.30
2018-03-24T08:16:45.031Z,14.80
2018-03-24T08:17:45.055Z,16.00
2018-03-24T08:18:44.988Z,14.60
2018-03-24T08:19:44.953Z,14.60
2018-03-24T08:20:44.978Z,14.40
2018-03-24T08:21:44.957Z,15.90
2018-03-24T08:22:44.875Z,14.70
2018-03-24T08:23:44.880Z,15.00
2018-03-24T08:24:44.840Z,15.80
2018-03-24T08:25:44.805Z,14.60
2018-03-24T08:26:44.769Z,14.60
2018-03-24T08:27:44.764Z,15.00
2018-03-24T08:28:44.721Z,13.30
2018-03-24T08:29:44.691Z,13.10
2018-03-24T08:30:44.655Z,13.10
2018-03-24T08:31:44.668Z,13.10
2018-03-24T08:32:44.614Z,11.20
2018-03-24T08:33:44.594Z,10.80
2018-03-24T08:34:44.561Z,9.90
2018-03-24T08:35:44.535Z,8.70
2018-03-24T08:36:44.517Z,10.60
2018-03-24T08:37:44.488Z,10.50
2018-03-24T08:38:44.464Z,12.00
2018-03-24T08:39:44.451Z,11.10
2018-03-24T08:40:44.432Z,7.80
2018-03-24T08:41:44.369Z,7.60
2018-03-24T08:42:44.362Z,9.90
2018-03-24T08:43:44.336Z,8.70
2018-03-24T08:44:44.322Z,9.90
2018-03-24T08:45:44.806Z,9.90
2018-03-24T08:46:44.247Z,10.50
2018-03-24T08:47:44.247Z,8.80
2018-03-24T08:48:44.222Z,8.50
2018-03-24T08:49:44.167Z,8.60
2018-03-24T08:50:44.800Z,8.10
2018-03-24T08:51:44.184Z,9.20
2018-03-24T08:52:44.119Z,8.10
2018-03-24T08:53:44.074Z,8.00
2018-03-24T08:54:44.050Z,8.70
2018-03-24T08:55:44.037Z,8.00
2018-03-24T08:56:44.009Z,8.00
2018-03-24T08:57:43.962Z,8.50
2018-03-24T08:58:43.936Z,8.50
2018-03-24T08:59:43.931Z,8.30
2018-03-24T09:00:43.886Z,8.50
2018-03-24T09:01:43.846Z,9.10
2018-03-24T09:02:43.795Z,9.30
2018-03-24T09:03:43.758Z,9.40
2018-03-24T09:04:43.758Z,10.50
2018-03-24T09:05:43.707Z,10.20
2018-03-24T09:06:43.675Z,10.90
2018-03-24T09:07:43.659Z,11.60
2018-03-24T09:08:43.615Z,11.70
2018-03-24T09:09:43.623Z,11.80
2018-03-24T09:10:43.561Z,12.00
2018-03-24T09:11:43.514Z,11.30
2018-03-24T09:12:43.497Z,11.00
2018-03-24T09:13:43.473Z,11.50
2018-03-24T09:14:43.438Z,11.50
2018-03-24T09:15:43.407Z,9.20
2018-03-24T09:16:43.379Z,10.10
2018-03-24T09:17:43.321Z,9.10
2018-03-24T09:18:43.323Z,10.10
2018-03-24T09:19:43.267Z,10.90
2018-03-24T09:20:43.257Z,10.10
2018-03-24T09:21:43.204Z,10.10
2018-03-24T09:22:43.166Z,9.80
2018-03-24T09:23:44.911Z,9.10
2018-03-24T09:24:43.107Z,8.80
2018-03-24T09:25:43.076Z,9.10
2018-03-24T09:26:43.042Z,10.20
2018-03-24T09:27:43.008Z,11.50
2018-03-24T09:28:42.980Z,10.20
2018-03-24T09:29:42.955Z,9.80
2018-03-24T09:30:42.917Z,9.70
2018-03-24T09:31:43.042Z,9.80
2018-03-24T09:32:42.902Z,9.20
2018-03-24T09:33:42.826Z,16.40
2018-03-24T09:34:42.842Z,9.30
2018-03-24T09:35:42.789Z,9.60
2018-03-24T09:36:42.829Z,9.30
2018-03-24T09:37:42.733Z,9.10
2018-03-24T09:38:42.701Z,9.50
2018-03-24T09:39:42.699Z,9.30
2018-03-24T09:40:42.662Z,9.20
2018-03-24T09:41:42.645Z,9.40
2018-03-24T09:42:42.584Z,9.40
2018-03-24T09:43:42.580Z,10.00
2018-03-24T09:44:42.542Z,27.00
2018-03-24T09:45:42.512Z,11.60
2018-03-24T09:46:42.539Z,9.70
2018-03-24T09:47:42.474Z,9.30
2018-03-24T09:48:42.461Z,9.80
2018-03-24T09:49:42.413Z,10.10
2018-03-24T09:50:42.408Z,9.70
2018-03-24T09:51:42.381Z,10.30
2018-03-24T09:52:42.377Z,11.10
2018-03-24T09:53:43.915Z,9.90
2018-03-24T09:54:42.338Z,10.00
2018-03-24T09:55:42.286Z,10.10
2018-03-24T09:56:42.228Z,11.60
2018-03-24T09:57:42.220Z,10.10
2018-03-24T09:58:42.179Z,10.50
2018-03-24T09:59:42.163Z,10.10
2018-03-24T10:00:42.147Z,9.20
2018-03-24T10:01:42.110Z,9.70
2018-03-24T10:02:42.100Z,10.20
2018-03-24T10:03:42.046Z,9.90
2018-03-24T10:04:42.014Z,9.60
2018-03-24T10:05:42.004Z,9.80
2018-03-24T10:06:42.006Z,10.00
2018-03-24T10:07:41.939Z,10.00
2018-03-24T10:08:42.834Z,9.20
2018-03-24T10:09:41.887Z,9.20
2018-03-24T10:10:41.878Z,10.10
2018-03-24T10:11:41.839Z,9.30
2018-03-24T10:12:41.815Z,9.90
2018-03-24T10:13:41.808Z,9.30
2018-03-24T10:14:41.755Z,9.50
2018-03-24T10:15:41.740Z,9.90
2018-03-24T10:16:41.751Z,9.60
2018-03-24T10:17:41.819Z,9.90
2018-03-24T10:18:41.674Z,8.90
2018-03-24T10:19:41.643Z,8.90
2018-03-24T10:20:41.612Z,9.20
2018-03-24T10:21:41.583Z,9.10
2018-03-24T10:22:41.573Z,9.30
2018-03-24T10:23:41.558Z,10.50
2018-03-24T10:24:41.508Z,10.70
2018-03-24T10:25:41.494Z,11.10
2018-03-24T10:26:41.454Z,11.00
2018-03-24T10:27:41.425Z,11.10
2018-03-24T10:28:41.415Z,10.90
2018-03-24T10:29:41.399Z,11.40
2018-03-24T10:30:41.337Z,14.10
2018-03-24T10:31:41.328Z,10.20
2018-03-24T10:32:41.299Z,9.60
2018-03-24T10:33:41.278Z,9.60
2018-03-24T10:34:41.253Z,9.70
2018-03-24T10:35:41.229Z,10.60
2018-03-24T10:36:41.187Z,10.30
2018-03-24T10:37:41.148Z,10.50
2018-03-24T10:38:41.145Z,10.40
2018-03-24T10:39:41.087Z,10.60
2018-03-24T10:40:41.063Z,10.30
2018-03-24T10:41:41.035Z,9.90
2018-03-24T10:42:41.005Z,10.90
2018-03-24T10:43:40.967Z,11.60
2018-03-24T10:44:40.941Z,11.50
2018-03-24T10:45:40.926Z,10.10
2018-03-24T10:46:40.918Z,10.60
2018-03-24T10:47:40.869Z,10.90
2018-03-24T10:48:40.875Z,10.60
2018-03-24T10:49:40.827Z,10.80
2018-03-24T10:50:40.792Z,10.70
2018-03-24T10:51:40.879Z,10.60
2018-03-24T10:52:40.741Z,11.10
2018-03-24T10:53:40.718Z,10.50
2018-03-24T10:54:40.693Z,11.10
2018-03-24T10:55:40.646Z,11.00
2018-03-24T10:56:40.643Z,10.30
2018-03-24T10:57:40.619Z,10.90
2018-03-24T10:58:40.559Z,10.40
2018-03-24T10:59:40.539Z,11.50
2018-03-24T11:00:40.541Z,12.40
2018-03-24T11:01:40.517Z,12.50
2018-03-24T11:02:40.464Z,12.30
2018-03-24T11:03:40.427Z,11.80
2018-03-24T11:04:40.406Z,11.80
2018-03-24T11:05:40.398Z,12.80
2018-03-24T11:06:40.350Z,11.70
2018-03-24T11:07:40.389Z,12.90
2018-03-24T11:08:40.304Z,12.40
2018-03-24T11:09:40.294Z,11.90
2018-03-24T11:10:40.241Z,11.30
2018-03-24T11:11:40.207Z,12.00
2018-03-24T11:12:40.194Z,11.50
2018-03-24T11:13:40.154Z,11.30
2018-03-24T11:14:40.126Z,11.20
2018-03-24T11:15:40.118Z,11.60
2018-03-24T11:16:40.070Z,11.40
2018-03-24T11:17:40.060Z,11.00
2018-03-24T11:18:40.027Z,11.60
2018-03-24T11:19:40.009Z,11.00
2018-03-24T11:20:39.968Z,11.00
2018-03-24T11:21:39.940Z,11.80
2018-03-24T11:22:39.941Z,11.40
2018-03-24T11:23:39.899Z,11.50
2018-03-24T11:24:39.891Z,11.30
2018-03-24T11:25:39.848Z,11.70
2018-03-24T11:26:39.831Z,11.10
2018-03-24T11:27:39.779Z,11.00
2018-03-24T11:28:39.775Z,10.50
2018-03-24T11:29:39.721Z,11.60
2018-03-24T11:30:39.695Z,11.40
2018-03-24T11:31:39.705Z,11.40
2018-03-24T11:32:39.653Z,11.60
2018-03-24T11:33:39.611Z,11.40
2018-03-24T11:34:39.606Z,12.10
2018-03-24T11:35:39.553Z,11.80
2018-03-24T11:36:39.527Z,11.70
2018-03-24T11:37:39.528Z,11.90
2018-03-24T11:38:39.481Z,11.90
2018-03-24T11:39:39.577Z,11.70
2018-03-24T11:40:39.450Z,11.60
2018-03-24T11:41:39.428Z,12.00
2018-03-24T11:42:39.384Z,11.80
2018-03-24T11:43:39.384Z,12.20
2018-03-24T11:44:39.360Z,11.60
2018-03-24T11:45:39.311Z,11.70
2018-03-24T11:46:39.277Z,12.20
2018-03-24T11:47:39.304Z,12.10
2018-03-24T11:48:39.231Z,11.70
2018-03-24T11:49:39.220Z,11.60
2018-03-24T11:50:39.189Z,11.50
2018-03-24T11:51:39.155Z,11.20
2018-03-24T11:52:39.134Z,12.10
2018-03-24T11:53:39.150Z,11.30
2018-03-24T11:54:39.068Z,11.50
2018-03-24T11:55:39.052Z,12.00
2018-03-24T11:56:39.046Z,11.50
2018-03-24T11:57:39.020Z,12.40
2018-03-24T11:58:39.027Z,10.90
2018-03-24T11:59:38.985Z,11.70
2018-03-24T12:00:38.929Z,11.80
2018-03-24T12:01:38.902Z,12.10
2018-03-24T12:02:38.875Z,11.60
2018-03-24T12:03:38.854Z,11.50
2018-03-24T12:04:38.838Z,11.30
2018-03-24T12:05:39.387Z,11.50
2018-03-24T12:06:38.784Z,11.00
2018-03-24T12:07:38.757Z,11.20
2018-03-24T12:08:38.733Z,11.20
2018-03-24T12:09:38.709Z,11.00
2018-03-24T12:10:38.693Z,11.30
2018-03-24T12:11:38.661Z,11.30
2018-03-24T12:12:38.683Z,11.40
2018-03-24T12:13:38.628Z,11.20
2018-03-24T12:14:38.573Z,11.10
2018-03-24T12:15:38.540Z,11.80
2018-03-24T12:16:38.538Z,11.50
2018-03-24T12:17:38.500Z,11.30
2018-03-24T12:18:38.485Z,11.40
2018-03-24T12:19:38.476Z,10.80
2018-03-24T12:20:38.449Z,11.70
2018-03-24T12:21:38.423Z,11.70
2018-03-24T12:22:38.383Z,11.90
2018-03-24T12:23:38.367Z,12.30
2018-03-24T12:24:38.336Z,12.00
2018-03-24T12:25:38.313Z,12.40
2018-03-24T12:26:38.276Z,12.20
2018-03-24T12:27:38.257Z,11.30
2018-03-24T12:28:38.231Z,11.50
2018-03-24T12:29:38.218Z,11.70
2018-03-24T12:30:38.189Z,11.60
2018-03-24T12:31:38.164Z,11.60
2018-03-24T12:32:38.147Z,11.30
2018-03-24T12:33:38.131Z,11.90
2018-03-24T12:34:38.093Z,11.80
2018-03-24T12:35:38.089Z,12.30
2018-03-24T12:36:38.034Z,11.90
2018-03-24T12:37:38.018Z,12.20
2018-03-24T12:38:38.044Z,12.10
2018-03-24T12:39:37.989Z,12.20
2018-03-24T12:40:37.942Z,12.40
2018-03-24T12:41:37.918Z,12.20
2018-03-24T12:42:37.890Z,12.90
2018-03-24T12:43:37.851Z,12.20
2018-03-24T12:44:37.817Z,11.70
2018-03-24T12:45:37.824Z,12.40
2018-03-24T12:46:37.793Z,12.30
2018-03-24T12:47:38.401Z,12.10
2018-03-24T12:48:37.728Z,11.70
2018-03-24T12:49:37.740Z,12.20
2018-03-24T12:50:37.706Z,12.00
2018-03-24T12:51:37.656Z,12.30
2018-03-24T12:52:37.616Z,12.80
2018-03-24T12:53:37.605Z,11.90
2018-03-24T12:54:37.574Z,12.20